<?xml version="1.0" encoding="UTF-8" standalone="no" ?><gpx xmlns="http://www.topografix.com/GPX/1/1" xmlns:gpxx="http://www.garmin.com/xmlschemas/GpxExtensions/v3" xmlns:gpxtrkx="http://www.garmin.com/xmlschemas/TrackStatsExtension/v1" xmlns:wptx1="http://www.garmin.com/xmlschemas/WaypointExtension/v1" xmlns:gpxtpx="http://www.garmin.com/xmlschemas/TrackPointExtension/v1" creator="Oregon 700" version="1.1" xmlns:xsi="http://www.w3.org/2001/XMLSchema-instance" xsi:schemaLocation="http://www.topografix.com/GPX/1/1 http://www.topografix.com/GPX/1/1/gpx.xsd http://www.garmin.com/xmlschemas/GpxExtensions/v3 http://www8.garmin.com/xmlschemas/GpxExtensionsv3.xsd http://www.garmin.com/xmlschemas/TrackStatsExtension/v1 http://www8.garmin.com/xmlschemas/TrackStatsExtension.xsd http://www.garmin.com/xmlschemas/WaypointExtension/v1 http://www8.garmin.com/xmlschemas/WaypointExtensionv1.xsd http://www.garmin.com/xmlschemas/TrackPointExtension/v1 http://www.garmin.com/xmlschemas/TrackPointExtensionv1.xsd"><metadata><link href="http://www.garmin.com"><text>Garmin International</text></link><time>2024-01-10T19:27:06Z</time></metadata><trk><name>Current Track: 10 JAN 2024 10:08</name><extensions><gpxx:TrackExtension><gpxx:DisplayColor>Cyan</gpxx:DisplayColor></gpxx:TrackExtension><gpxtrkx:TrackStatsExtension><gpxtrkx:Distance>2631.000</gpxtrkx:Distance><gpxtrkx:TimerTime>6791</gpxtrkx:TimerTime><gpxtrkx:TotalElapsedTime>33538</gpxtrkx:TotalElapsedTime><gpxtrkx:MovingTime>4854</gpxtrkx:MovingTime><gpxtrkx:StoppedTime>1938</gpxtrkx:StoppedTime><gpxtrkx:MovingSpeed>0.542</gpxtrkx:MovingSpeed><gpxtrkx:MaxSpeed>1.388</gpxtrkx:MaxSpeed><gpxtrkx:MaxElevation>19.738</gpxtrkx:MaxElevation><gpxtrkx:MinElevation>-74.503</gpxtrkx:MinElevation><gpxtrkx:Ascent>133.000</gpxtrkx:Ascent><gpxtrkx:Descent>132.235</gpxtrkx:Descent><gpxtrkx:AvgAscentRate>0.075</gpxtrkx:AvgAscentRate><gpxtrkx:MaxAscentRate>0.541</gpxtrkx:MaxAscentRate><gpxtrkx:AvgDescentRate>0.074</gpxtrkx:AvgDescentRate><gpxtrkx:MaxDescentRate>-0.243</gpxtrkx:MaxDescentRate><gpxtrkx:Calories>119</gpxtrkx:Calories></gpxtrkx:TrackStatsExtension></extensions><trkseg><trkpt lat="51.7924727965" lon="-2.1590052545"><ele>-54.84</ele><time>2024-01-10T10:08:09Z</time></trkpt><trkpt lat="51.7924738862" lon="-2.1590100322"><ele>-54.13</ele><time>2024-01-10T10:08:35Z</time></trkpt><trkpt lat="51.7924943380" lon="-2.1590221021"><ele>-54.55</ele><time>2024-01-10T10:08:58Z</time></trkpt><trkpt lat="51.7924768198" lon="-2.1590143070"><ele>-55.55</ele><time>2024-01-10T10:09:19Z</time></trkpt><trkpt lat="51.7924617324" lon="-2.1589901671"><ele>-55.55</ele><time>2024-01-10T10:09:38Z</time></trkpt><trkpt lat="51.7924615648" lon="-2.1589824557"><ele>-55.55</ele><time>2024-01-10T10:10:02Z</time></trkpt><trkpt lat="51.7923938390" lon="-2.1590053383"><ele>-55.55</ele><time>2024-01-10T10:10:23Z</time></trkpt><trkpt lat="51.7923748121" lon="-2.1590437274"><ele>-55.55</ele><time>2024-01-10T10:10:45Z</time></trkpt><trkpt lat="51.7923229281" lon="-2.1590037458"><ele>-55.55</ele><time>2024-01-10T10:11:08Z</time></trkpt><trkpt lat="51.7923761532" lon="-2.1587413922"><ele>-55.54</ele><time>2024-01-10T10:11:36Z</time></trkpt><trkpt lat="51.7924041487" lon="-2.1585937869"><ele>-55.54</ele><time>2024-01-10T10:11:59Z</time></trkpt><trkpt lat="51.7924448010" lon="-2.1583537292"><ele>-55.54</ele><time>2024-01-10T10:12:20Z</time></trkpt><trkpt lat="51.7924822681" lon="-2.1582000889"><ele>-55.54</ele><time>2024-01-10T10:12:38Z</time></trkpt><trkpt lat="51.7925250996" lon="-2.1578670759"><ele>-55.54</ele><time>2024-01-10T10:13:04Z</time></trkpt><trkpt lat="51.7925531790" lon="-2.1576270182"><ele>-55.54</ele><time>2024-01-10T10:13:29Z</time></trkpt><trkpt lat="51.7925728764" lon="-2.1575533412"><ele>-55.54</ele><time>2024-01-10T10:13:53Z</time></trkpt><trkpt lat="51.7926085833" lon="-2.1572774928"><ele>-55.54</ele><time>2024-01-10T10:14:20Z</time></trkpt><trkpt lat="51.7926648259" lon="-2.1570972819"><ele>-55.54</ele><time>2024-01-10T10:14:45Z</time></trkpt><trkpt lat="51.7926898878" lon="-2.1570277121"><ele>-55.54</ele><time>2024-01-10T10:15:08Z</time></trkpt><trkpt lat="51.7927012872" lon="-2.1570661850"><ele>-55.54</ele><time>2024-01-10T10:15:32Z</time></trkpt><trkpt lat="51.7927136086" lon="-2.1569573041"><ele>-55.53</ele><time>2024-01-10T10:15:52Z</time></trkpt><trkpt lat="51.7927110102" lon="-2.1569374390"><ele>-55.53</ele><time>2024-01-10T10:15:53Z</time></trkpt><trkpt lat="51.7927052267" lon="-2.1568267979"><ele>-52.33</ele><time>2024-01-10T10:16:01Z</time></trkpt><trkpt lat="51.7927082442" lon="-2.1566996444"><ele>-52.11</ele><time>2024-01-10T10:16:11Z</time></trkpt><trkpt lat="51.7927149497" lon="-2.1565269772"><ele>-51.67</ele><time>2024-01-10T10:16:32Z</time></trkpt><trkpt lat="51.7927426938" lon="-2.1565124765"><ele>-52.04</ele><time>2024-01-10T10:16:54Z</time></trkpt><trkpt lat="51.7927571945" lon="-2.1564280707"><ele>-51.73</ele><time>2024-01-10T10:17:21Z</time></trkpt><trkpt lat="51.7927406821" lon="-2.1563749295"><ele>-51.62</ele><time>2024-01-10T10:17:44Z</time></trkpt><trkpt lat="51.7927385028" lon="-2.1561700758"><ele>-51.37</ele><time>2024-01-10T10:18:07Z</time></trkpt><trkpt lat="51.7927970923" lon="-2.1561068762"><ele>-51.21</ele><time>2024-01-10T10:18:28Z</time></trkpt><trkpt lat="51.7928659916" lon="-2.1560900286"><ele>-51.21</ele><time>2024-01-10T10:18:47Z</time></trkpt><trkpt lat="51.7929514870" lon="-2.1562875900"><ele>-51.21</ele><time>2024-01-10T10:19:10Z</time></trkpt><trkpt lat="51.7929576058" lon="-2.1562993247"><ele>-46.37</ele><time>2024-01-10T10:19:16Z</time></trkpt><trkpt lat="51.7929583602" lon="-2.1563010011"><ele>-46.49</ele><time>2024-01-10T10:19:17Z</time></trkpt><trkpt lat="51.7929853499" lon="-2.1563262306"><ele>-44.69</ele><time>2024-01-10T10:19:55Z</time></trkpt><trkpt lat="51.7930400837" lon="-2.1563518792"><ele>-44.79</ele><time>2024-01-10T10:20:20Z</time></trkpt><trkpt lat="51.7930356413" lon="-2.1564212814"><ele>-43.64</ele><time>2024-01-10T10:20:40Z</time></trkpt><trkpt lat="51.7930376530" lon="-2.1564957965"><ele>-42.19</ele><time>2024-01-10T10:21:03Z</time></trkpt><trkpt lat="51.7930389103" lon="-2.1566417255"><ele>-39.85</ele><time>2024-01-10T10:21:28Z</time></trkpt><trkpt lat="51.7930938117" lon="-2.1566796117"><ele>-38.53</ele><time>2024-01-10T10:21:52Z</time></trkpt><trkpt lat="51.7931161076" lon="-2.1567382850"><ele>-36.03</ele><time>2024-01-10T10:22:15Z</time></trkpt><trkpt lat="51.7931207176" lon="-2.1568313241"><ele>-33.79</ele><time>2024-01-10T10:22:38Z</time></trkpt><trkpt lat="51.7931198794" lon="-2.1569001395"><ele>-32.83</ele><time>2024-01-10T10:23:04Z</time></trkpt><trkpt lat="51.7931455281" lon="-2.1569298115"><ele>-31.89</ele><time>2024-01-10T10:23:31Z</time></trkpt><trkpt lat="51.7931584362" lon="-2.1569627523"><ele>-30.70</ele><time>2024-01-10T10:23:52Z</time></trkpt><trkpt lat="51.7931837495" lon="-2.1570279635"><ele>-29.40</ele><time>2024-01-10T10:24:18Z</time></trkpt><trkpt lat="51.7932000943" lon="-2.1570930909"><ele>-27.30</ele><time>2024-01-10T10:24:45Z</time></trkpt><trkpt lat="51.7932491284" lon="-2.1571490820"><ele>-25.72</ele><time>2024-01-10T10:25:06Z</time></trkpt><trkpt lat="51.7932808958" lon="-2.1571786702"><ele>-24.40</ele><time>2024-01-10T10:25:29Z</time></trkpt><trkpt lat="51.7933202907" lon="-2.1572089288"><ele>-21.88</ele><time>2024-01-10T10:25:51Z</time></trkpt><trkpt lat="51.7933223862" lon="-2.1572020557"><ele>-21.60</ele><time>2024-01-10T10:26:21Z</time></trkpt><trkpt lat="51.7933160160" lon="-2.1571710426"><ele>-21.45</ele><time>2024-01-10T10:26:48Z</time></trkpt><trkpt lat="51.7933306005" lon="-2.1571978647"><ele>-22.05</ele><time>2024-01-10T10:27:24Z</time></trkpt><trkpt lat="51.7933367193" lon="-2.1572240163"><ele>-19.65</ele><time>2024-01-10T10:27:29Z</time></trkpt><trkpt lat="51.7933602724" lon="-2.1573816799"><ele>-20.35</ele><time>2024-01-10T10:27:51Z</time></trkpt><trkpt lat="51.7933873460" lon="-2.1574574523"><ele>-19.27</ele><time>2024-01-10T10:28:17Z</time></trkpt><trkpt lat="51.7934572510" lon="-2.1575064864"><ele>-19.04</ele><time>2024-01-10T10:28:43Z</time></trkpt><trkpt lat="51.7935042735" lon="-2.1574865375"><ele>-19.04</ele><time>2024-01-10T10:29:09Z</time></trkpt><trkpt lat="51.7935656291" lon="-2.1574624814"><ele>-15.31</ele><time>2024-01-10T10:29:27Z</time></trkpt><trkpt lat="51.7935668025" lon="-2.1574610565"><ele>-15.80</ele><time>2024-01-10T10:29:28Z</time></trkpt><trkpt lat="51.7936417367" lon="-2.1573616471"><ele>-14.37</ele><time>2024-01-10T10:29:55Z</time></trkpt><trkpt lat="51.7936782818" lon="-2.1572976932"><ele>-11.24</ele><time>2024-01-10T10:30:17Z</time></trkpt><trkpt lat="51.7936771084" lon="-2.1572775766"><ele>-10.58</ele><time>2024-01-10T10:30:47Z</time></trkpt><trkpt lat="51.7937481869" lon="-2.1571909077"><ele>-9.12</ele><time>2024-01-10T10:31:13Z</time></trkpt><trkpt lat="51.7937796190" lon="-2.1571465675"><ele>-7.30</ele><time>2024-01-10T10:31:37Z</time></trkpt><trkpt lat="51.7938569002" lon="-2.1570303943"><ele>-4.29</ele><time>2024-01-10T10:32:03Z</time></trkpt><trkpt lat="51.7939427309" lon="-2.1569376066"><ele>-2.61</ele><time>2024-01-10T10:32:25Z</time></trkpt><trkpt lat="51.7939792760" lon="-2.1569127962"><ele>-1.28</ele><time>2024-01-10T10:32:49Z</time></trkpt><trkpt lat="51.7940035835" lon="-2.1569148079"><ele>-1.22</ele><time>2024-01-10T10:33:17Z</time></trkpt><trkpt lat="51.7940029968" lon="-2.1569397021"><ele>-0.51</ele><time>2024-01-10T10:33:36Z</time></trkpt><trkpt lat="51.7940019071" lon="-2.1567977127"><ele>-0.89</ele><time>2024-01-10T10:33:55Z</time></trkpt><trkpt lat="51.7940214369" lon="-2.1566675417"><ele>0.26</ele><time>2024-01-10T10:34:09Z</time></trkpt><trkpt lat="51.7940430623" lon="-2.1566184238"><ele>1.30</ele><time>2024-01-10T10:34:30Z</time></trkpt><trkpt lat="51.7940425593" lon="-2.1565010771"><ele>1.93</ele><time>2024-01-10T10:34:50Z</time></trkpt><trkpt lat="51.7940770090" lon="-2.1564126480"><ele>2.72</ele><time>2024-01-10T10:35:09Z</time></trkpt><trkpt lat="51.7941902485" lon="-2.1563980635"><ele>4.39</ele><time>2024-01-10T10:35:31Z</time></trkpt><trkpt lat="51.7943048291" lon="-2.1563450061"><ele>5.99</ele><time>2024-01-10T10:35:58Z</time></trkpt><trkpt lat="51.7943731416" lon="-2.1563219558"><ele>7.79</ele><time>2024-01-10T10:36:19Z</time></trkpt><trkpt lat="51.7944555357" lon="-2.1562668867"><ele>8.59</ele><time>2024-01-10T10:36:41Z</time></trkpt><trkpt lat="51.7945629917" lon="-2.1561861690"><ele>10.08</ele><time>2024-01-10T10:37:01Z</time></trkpt><trkpt lat="51.7946501635" lon="-2.1561642084"><ele>10.35</ele><time>2024-01-10T10:37:27Z</time></trkpt><trkpt lat="51.7947678454" lon="-2.1561101452"><ele>12.05</ele><time>2024-01-10T10:37:54Z</time></trkpt><trkpt lat="51.7947995290" lon="-2.1561023500"><ele>11.98</ele><time>2024-01-10T10:37:58Z</time></trkpt><trkpt lat="51.7949719448" lon="-2.1560202911"><ele>11.84</ele><time>2024-01-10T10:38:24Z</time></trkpt><trkpt lat="51.7950994335" lon="-2.1558526531"><ele>12.54</ele><time>2024-01-10T10:38:51Z</time></trkpt><trkpt lat="51.7951464560" lon="-2.1556332149"><ele>13.78</ele><time>2024-01-10T10:39:19Z</time></trkpt><trkpt lat="51.7951892037" lon="-2.1554514952"><ele>15.08</ele><time>2024-01-10T10:39:43Z</time></trkpt><trkpt lat="51.7952284310" lon="-2.1553111821"><ele>16.54</ele><time>2024-01-10T10:40:12Z</time></trkpt><trkpt lat="51.7952136789" lon="-2.1552269440"><ele>16.33</ele><time>2024-01-10T10:40:37Z</time></trkpt><trkpt lat="51.7952060513" lon="-2.1552385949"><ele>17.37</ele><time>2024-01-10T10:41:01Z</time></trkpt><trkpt lat="51.7952183727" lon="-2.1552509163"><ele>17.20</ele><time>2024-01-10T10:41:25Z</time></trkpt><trkpt lat="51.7951987591" lon="-2.1552435402"><ele>16.20</ele><time>2024-01-10T10:41:49Z</time></trkpt><trkpt lat="51.7951793969" lon="-2.1552782413"><ele>16.20</ele><time>2024-01-10T10:42:14Z</time></trkpt><trkpt lat="51.7951731943" lon="-2.1552626509"><ele>16.20</ele><time>2024-01-10T10:42:42Z</time></trkpt><trkpt lat="51.7951705121" lon="-2.1552671771"><ele>16.20</ele><time>2024-01-10T10:43:22Z</time></trkpt><trkpt lat="51.7951781396" lon="-2.1552623995"><ele>16.20</ele><time>2024-01-10T10:43:52Z</time></trkpt><trkpt lat="51.7951798160" lon="-2.1552545205"><ele>16.20</ele><time>2024-01-10T10:44:30Z</time></trkpt><trkpt lat="51.7951871082" lon="-2.1552506648"><ele>16.20</ele><time>2024-01-10T10:44:56Z</time></trkpt><trkpt lat="51.7951929756" lon="-2.1552244294"><ele>16.20</ele><time>2024-01-10T10:45:38Z</time></trkpt><trkpt lat="51.7951903772" lon="-2.1552372538"><ele>16.20</ele><time>2024-01-10T10:46:08Z</time></trkpt><trkpt lat="51.7951762117" lon="-2.1552575380"><ele>16.20</ele><time>2024-01-10T10:46:39Z</time></trkpt><trkpt lat="51.7951861024" lon="-2.1552576218"><ele>16.20</ele><time>2024-01-10T10:47:05Z</time></trkpt><trkpt lat="51.7951855157" lon="-2.1552421153"><ele>16.20</ele><time>2024-01-10T10:47:34Z</time></trkpt><trkpt lat="51.7951975018" lon="-2.1552413609"><ele>16.20</ele><time>2024-01-10T10:48:02Z</time></trkpt><trkpt lat="51.7951824144" lon="-2.1552609745"><ele>16.20</ele><time>2024-01-10T10:48:30Z</time></trkpt><trkpt lat="51.7951837555" lon="-2.1552449651"><ele>16.20</ele><time>2024-01-10T10:49:09Z</time></trkpt><trkpt lat="51.7951821629" lon="-2.1552447975"><ele>16.20</ele><time>2024-01-10T10:49:48Z</time></trkpt><trkpt lat="51.7951829173" lon="-2.1552482340"><ele>16.20</ele><time>2024-01-10T10:50:21Z</time></trkpt><trkpt lat="51.7951439414" lon="-2.1552831866"><ele>16.20</ele><time>2024-01-10T10:50:50Z</time></trkpt><trkpt lat="51.7951751221" lon="-2.1552552748"><ele>16.20</ele><time>2024-01-10T10:51:11Z</time></trkpt><trkpt lat="51.7952037882" lon="-2.1552626509"><ele>16.20</ele><time>2024-01-10T10:51:37Z</time></trkpt><trkpt lat="51.7951752059" lon="-2.1552707814"><ele>16.20</ele><time>2024-01-10T10:52:02Z</time></trkpt><trkpt lat="51.7951515689" lon="-2.1552913170"><ele>16.20</ele><time>2024-01-10T10:52:29Z</time></trkpt><trkpt lat="51.7951487191" lon="-2.1552896407"><ele>16.20</ele><time>2024-01-10T10:53:00Z</time></trkpt><trkpt lat="51.7952071410" lon="-2.1552413609"><ele>16.20</ele><time>2024-01-10T10:53:26Z</time></trkpt><trkpt lat="51.7951744515" lon="-2.1552648302"><ele>16.20</ele><time>2024-01-10T10:53:46Z</time></trkpt><trkpt lat="51.7951744515" lon="-2.1552463900"><ele>16.20</ele><time>2024-01-10T10:54:17Z</time></trkpt><trkpt lat="51.7951788940" lon="-2.1552293748"><ele>16.20</ele><time>2024-01-10T10:54:43Z</time></trkpt><trkpt lat="51.7951915506" lon="-2.1552604716"><ele>16.20</ele><time>2024-01-10T10:55:10Z</time></trkpt><trkpt lat="51.7951804027" lon="-2.1552771516"><ele>16.20</ele><time>2024-01-10T10:55:39Z</time></trkpt><trkpt lat="51.7951698415" lon="-2.1552766487"><ele>12.63</ele><time>2024-01-10T10:55:53Z</time></trkpt><trkpt lat="51.7951674946" lon="-2.1552773193"><ele>13.37</ele><time>2024-01-10T10:55:54Z</time></trkpt><trkpt lat="51.7951680813" lon="-2.1552807558"><ele>15.92</ele><time>2024-01-10T10:56:07Z</time></trkpt><trkpt lat="51.7952661496" lon="-2.1552747209"><ele>19.01</ele><time>2024-01-10T10:56:13Z</time></trkpt><trkpt lat="51.7951892875" lon="-2.1552500781"><ele>17.33</ele><time>2024-01-10T10:56:28Z</time></trkpt><trkpt lat="51.7952103261" lon="-2.1552604716"><ele>16.65</ele><time>2024-01-10T10:56:55Z</time></trkpt><trkpt lat="51.7951751221" lon="-2.1553236712"><ele>17.34</ele><time>2024-01-10T10:57:05Z</time></trkpt><trkpt lat="51.7951384094" lon="-2.1552624833"><ele>16.92</ele><time>2024-01-10T10:57:22Z</time></trkpt><trkpt lat="51.7951742001" lon="-2.1552443784"><ele>17.79</ele><time>2024-01-10T10:57:45Z</time></trkpt><trkpt lat="51.7951767147" lon="-2.1552339848"><ele>17.42</ele><time>2024-01-10T10:58:13Z</time></trkpt><trkpt lat="51.7951656505" lon="-2.1552550234"><ele>17.87</ele><time>2024-01-10T10:58:40Z</time></trkpt><trkpt lat="51.7951833364" lon="-2.1552774031"><ele>17.02</ele><time>2024-01-10T10:59:07Z</time></trkpt><trkpt lat="51.7952077277" lon="-2.1552801691"><ele>18.33</ele><time>2024-01-10T10:59:27Z</time></trkpt><trkpt lat="51.7951865215" lon="-2.1552664228"><ele>18.22</ele><time>2024-01-10T10:59:59Z</time></trkpt><trkpt lat="51.7951757088" lon="-2.1552712843"><ele>18.22</ele><time>2024-01-10T11:00:30Z</time></trkpt><trkpt lat="51.7951774690" lon="-2.1552577894"><ele>18.22</ele><time>2024-01-10T11:00:57Z</time></trkpt><trkpt lat="51.7951666564" lon="-2.1552261896"><ele>18.22</ele><time>2024-01-10T11:01:24Z</time></trkpt><trkpt lat="51.7951843422" lon="-2.1552411094"><ele>18.22</ele><time>2024-01-10T11:01:46Z</time></trkpt><trkpt lat="51.7951824144" lon="-2.1552389301"><ele>13.18</ele><time>2024-01-10T11:01:59Z</time></trkpt><trkpt lat="51.7951809056" lon="-2.1552409418"><ele>13.59</ele><time>2024-01-10T11:02:00Z</time></trkpt><trkpt lat="51.7952047102" lon="-2.1552586276"><ele>16.98</ele><time>2024-01-10T11:02:12Z</time></trkpt><trkpt lat="51.7951807380" lon="-2.1552673448"><ele>18.91</ele><time>2024-01-10T11:02:18Z</time></trkpt><trkpt lat="51.7951567657" lon="-2.1552546043"><ele>23.97</ele><time>2024-01-10T11:02:20Z</time></trkpt><trkpt lat="51.7951301951" lon="-2.1552230883"><ele>26.12</ele><time>2024-01-10T11:02:23Z</time></trkpt><trkpt lat="51.7950946558" lon="-2.1551811788"><ele>22.43</ele><time>2024-01-10T11:02:27Z</time></trkpt><trkpt lat="51.7950566020" lon="-2.1551450528"><ele>18.96</ele><time>2024-01-10T11:02:31Z</time></trkpt><trkpt lat="51.7950050533" lon="-2.1550779138"><ele>16.82</ele><time>2024-01-10T11:02:56Z</time></trkpt><trkpt lat="51.7950032093" lon="-2.1550644189"><ele>12.05</ele><time>2024-01-10T11:03:16Z</time></trkpt><trkpt lat="51.7950015329" lon="-2.1550646704"><ele>8.35</ele><time>2024-01-10T11:03:17Z</time></trkpt><trkpt lat="51.7949993536" lon="-2.1550646704"><ele>5.08</ele><time>2024-01-10T11:03:18Z</time></trkpt><trkpt lat="51.7949989345" lon="-2.1550602280"><ele>9.37</ele><time>2024-01-10T11:03:22Z</time></trkpt><trkpt lat="51.7950007785" lon="-2.1550607309"><ele>12.56</ele><time>2024-01-10T11:03:23Z</time></trkpt><trkpt lat="51.7950022034" lon="-2.1550634969"><ele>15.60</ele><time>2024-01-10T11:03:24Z</time></trkpt><trkpt lat="51.7950023711" lon="-2.1550655924"><ele>19.06</ele><time>2024-01-10T11:03:25Z</time></trkpt><trkpt lat="51.7950027902" lon="-2.1550659277"><ele>22.26</ele><time>2024-01-10T11:03:26Z</time></trkpt><trkpt lat="51.7950043827" lon="-2.1550643351"><ele>25.46</ele><time>2024-01-10T11:03:29Z</time></trkpt><trkpt lat="51.7950054724" lon="-2.1550751477"><ele>21.54</ele><time>2024-01-10T11:03:33Z</time></trkpt><trkpt lat="51.7950097471" lon="-2.1550827753"><ele>18.27</ele><time>2024-01-10T11:03:38Z</time></trkpt><trkpt lat="51.7949954141" lon="-2.1550862957"><ele>15.09</ele><time>2024-01-10T11:03:58Z</time></trkpt><trkpt lat="51.7949484754" lon="-2.1550893970"><ele>17.20</ele><time>2024-01-10T11:04:04Z</time></trkpt><trkpt lat="51.7948074918" lon="-2.1550795063"><ele>15.89</ele><time>2024-01-10T11:04:26Z</time></trkpt><trkpt lat="51.7947893869" lon="-2.1550776623"><ele>13.81</ele><time>2024-01-10T11:04:47Z</time></trkpt><trkpt lat="51.7947979365" lon="-2.1550742257"><ele>17.53</ele><time>2024-01-10T11:04:56Z</time></trkpt><trkpt lat="51.7947945837" lon="-2.1550582163"><ele>16.54</ele><time>2024-01-10T11:05:21Z</time></trkpt><trkpt lat="51.7947048973" lon="-2.1551584639"><ele>17.07</ele><time>2024-01-10T11:05:39Z</time></trkpt><trkpt lat="51.7946204077" lon="-2.1552188974"><ele>14.05</ele><time>2024-01-10T11:05:53Z</time></trkpt><trkpt lat="51.7944996245" lon="-2.1553628985"><ele>13.42</ele><time>2024-01-10T11:06:09Z</time></trkpt><trkpt lat="51.7943861336" lon="-2.1554819215"><ele>11.60</ele><time>2024-01-10T11:06:21Z</time></trkpt><trkpt lat="51.7943358421" lon="-2.1555307042"><ele>11.01</ele><time>2024-01-10T11:06:26Z</time></trkpt><trkpt lat="51.7941916734" lon="-2.1556935646"><ele>8.95</ele><time>2024-01-10T11:06:44Z</time></trkpt><trkpt lat="51.7941423040" lon="-2.1559219714"><ele>7.55</ele><time>2024-01-10T11:07:05Z</time></trkpt><trkpt lat="51.7940952815" lon="-2.1561182756"><ele>6.46</ele><time>2024-01-10T11:07:27Z</time></trkpt><trkpt lat="51.7940459959" lon="-2.1563882567"><ele>4.85</ele><time>2024-01-10T11:07:56Z</time></trkpt><trkpt lat="51.7940357700" lon="-2.1565679647"><ele>3.60</ele><time>2024-01-10T11:08:20Z</time></trkpt><trkpt lat="51.7940125521" lon="-2.1565991454"><ele>3.27</ele><time>2024-01-10T11:08:46Z</time></trkpt><trkpt lat="51.7940021586" lon="-2.1566222794"><ele>4.49</ele><time>2024-01-10T11:09:08Z</time></trkpt><trkpt lat="51.7940045893" lon="-2.1566707268"><ele>4.49</ele><time>2024-01-10T11:09:33Z</time></trkpt><trkpt lat="51.7939379532" lon="-2.1566837188"><ele>4.49</ele><time>2024-01-10T11:09:58Z</time></trkpt><trkpt lat="51.7939017434" lon="-2.1566237882"><ele>0.68</ele><time>2024-01-10T11:10:08Z</time></trkpt><trkpt lat="51.7939000670" lon="-2.1566178370"><ele>0.69</ele><time>2024-01-10T11:10:09Z</time></trkpt><trkpt lat="51.7938569840" lon="-2.1564173419"><ele>-1.10</ele><time>2024-01-10T11:10:40Z</time></trkpt><trkpt lat="51.7938147392" lon="-2.1561652143"><ele>-2.27</ele><time>2024-01-10T11:11:08Z</time></trkpt><trkpt lat="51.7937809601" lon="-2.1558897011"><ele>-3.75</ele><time>2024-01-10T11:11:34Z</time></trkpt><trkpt lat="51.7937810440" lon="-2.1555757150"><ele>-5.27</ele><time>2024-01-10T11:12:07Z</time></trkpt><trkpt lat="51.7937825527" lon="-2.1552812587"><ele>-7.17</ele><time>2024-01-10T11:12:35Z</time></trkpt><trkpt lat="51.7937569879" lon="-2.1550593898"><ele>-7.52</ele><time>2024-01-10T11:12:58Z</time></trkpt><trkpt lat="51.7937150784" lon="-2.1547241136"><ele>-8.89</ele><time>2024-01-10T11:13:30Z</time></trkpt><trkpt lat="51.7936769407" lon="-2.1544661187"><ele>-10.36</ele><time>2024-01-10T11:13:57Z</time></trkpt><trkpt lat="51.7936348636" lon="-2.1542410646"><ele>-13.15</ele><time>2024-01-10T11:14:28Z</time></trkpt><trkpt lat="51.7935770284" lon="-2.1539955586"><ele>-16.17</ele><time>2024-01-10T11:15:01Z</time></trkpt><trkpt lat="51.7935501225" lon="-2.1538409125"><ele>-18.08</ele><time>2024-01-10T11:15:24Z</time></trkpt><trkpt lat="51.7935424950" lon="-2.1537839156"><ele>-19.09</ele><time>2024-01-10T11:15:33Z</time></trkpt><trkpt lat="51.7934683152" lon="-2.1536012739"><ele>-21.03</ele><time>2024-01-10T11:15:59Z</time></trkpt><trkpt lat="51.7934550717" lon="-2.1535386611"><ele>-22.59</ele><time>2024-01-10T11:16:22Z</time></trkpt><trkpt lat="51.7934445105" lon="-2.1534902975"><ele>-23.10</ele><time>2024-01-10T11:16:52Z</time></trkpt><trkpt lat="51.7933627870" lon="-2.1533720288"><ele>-23.84</ele><time>2024-01-10T11:17:15Z</time></trkpt><trkpt lat="51.7933366355" lon="-2.1532847732"><ele>-24.86</ele><time>2024-01-10T11:17:40Z</time></trkpt><trkpt lat="51.7932927981" lon="-2.1531619783"><ele>-26.21</ele><time>2024-01-10T11:18:02Z</time></trkpt><trkpt lat="51.7932767048" lon="-2.1530843619"><ele>-27.88</ele><time>2024-01-10T11:18:29Z</time></trkpt><trkpt lat="51.7932311911" lon="-2.1529148798"><ele>-29.80</ele><time>2024-01-10T11:18:54Z</time></trkpt><trkpt lat="51.7931901198" lon="-2.1527640056"><ele>-32.34</ele><time>2024-01-10T11:19:20Z</time></trkpt><trkpt lat="51.7931922153" lon="-2.1526028216"><ele>-32.64</ele><time>2024-01-10T11:19:51Z</time></trkpt><trkpt lat="51.7931914609" lon="-2.1525117103"><ele>-33.76</ele><time>2024-01-10T11:20:17Z</time></trkpt><trkpt lat="51.7931654770" lon="-2.1524516959"><ele>-33.09</ele><time>2024-01-10T11:20:46Z</time></trkpt><trkpt lat="51.7931739427" lon="-2.1524337586"><ele>-37.08</ele><time>2024-01-10T11:21:10Z</time></trkpt><trkpt lat="51.7931819055" lon="-2.1524313278"><ele>-38.75</ele><time>2024-01-10T11:21:13Z</time></trkpt><trkpt lat="51.7931798939" lon="-2.1524419729"><ele>-41.82</ele><time>2024-01-10T11:21:22Z</time></trkpt><trkpt lat="51.7931753676" lon="-2.1524506062"><ele>-44.55</ele><time>2024-01-10T11:21:26Z</time></trkpt><trkpt lat="51.7931728531" lon="-2.1524672862"><ele>-41.19</ele><time>2024-01-10T11:21:30Z</time></trkpt><trkpt lat="51.7931718472" lon="-2.1524724830"><ele>-36.52</ele><time>2024-01-10T11:21:31Z</time></trkpt><trkpt lat="51.7931705900" lon="-2.1524791885"><ele>-29.64</ele><time>2024-01-10T11:21:32Z</time></trkpt><trkpt lat="51.7931684107" lon="-2.1524841338"><ele>-24.64</ele><time>2024-01-10T11:21:33Z</time></trkpt><trkpt lat="51.7931651417" lon="-2.1524904203"><ele>-20.82</ele><time>2024-01-10T11:21:35Z</time></trkpt><trkpt lat="51.7931648064" lon="-2.1524914261"><ele>-21.05</ele><time>2024-01-10T11:21:36Z</time></trkpt><trkpt lat="51.7931641359" lon="-2.1524972096"><ele>-24.32</ele><time>2024-01-10T11:21:38Z</time></trkpt><trkpt lat="51.7931621242" lon="-2.1525053401"><ele>-28.01</ele><time>2024-01-10T11:21:40Z</time></trkpt><trkpt lat="51.7931586038" lon="-2.1525164880"><ele>-32.22</ele><time>2024-01-10T11:21:43Z</time></trkpt><trkpt lat="51.7931582686" lon="-2.1525177453"><ele>-37.77</ele><time>2024-01-10T11:21:45Z</time></trkpt><trkpt lat="51.7931596935" lon="-2.1525149792"><ele>-38.39</ele><time>2024-01-10T11:21:47Z</time></trkpt><trkpt lat="51.7931591067" lon="-2.1525170747"><ele>-33.51</ele><time>2024-01-10T11:21:50Z</time></trkpt><trkpt lat="51.7931444384" lon="-2.1525458246"><ele>-32.23</ele><time>2024-01-10T11:22:14Z</time></trkpt><trkpt lat="51.7931342125" lon="-2.1525200922"><ele>-30.09</ele><time>2024-01-10T11:22:44Z</time></trkpt><trkpt lat="51.7931315303" lon="-2.1523974650"><ele>-33.70</ele><time>2024-01-10T11:22:51Z</time></trkpt><trkpt lat="51.7931573465" lon="-2.1521613467"><ele>-35.66</ele><time>2024-01-10T11:23:06Z</time></trkpt><trkpt lat="51.7931812350" lon="-2.1520788688"><ele>-35.77</ele><time>2024-01-10T11:23:25Z</time></trkpt><trkpt lat="51.7931670696" lon="-2.1520358697"><ele>-36.50</ele><time>2024-01-10T11:23:48Z</time></trkpt><trkpt lat="51.7931942269" lon="-2.1520294994"><ele>-36.17</ele><time>2024-01-10T11:24:12Z</time></trkpt><trkpt lat="51.7931886110" lon="-2.1519491170"><ele>-36.40</ele><time>2024-01-10T11:24:39Z</time></trkpt><trkpt lat="51.7931928858" lon="-2.1518085524"><ele>-36.40</ele><time>2024-01-10T11:25:05Z</time></trkpt><trkpt lat="51.7931513954" lon="-2.1517284214"><ele>-42.27</ele><time>2024-01-10T11:25:23Z</time></trkpt><trkpt lat="51.7931495514" lon="-2.1517251525"><ele>-42.25</ele><time>2024-01-10T11:25:24Z</time></trkpt><trkpt lat="51.7931339610" lon="-2.1516378131"><ele>-43.47</ele><time>2024-01-10T11:25:48Z</time></trkpt><trkpt lat="51.7931213882" lon="-2.1515523177"><ele>-44.74</ele><time>2024-01-10T11:26:11Z</time></trkpt><trkpt lat="51.7931767926" lon="-2.1514689177"><ele>-46.12</ele><time>2024-01-10T11:26:36Z</time></trkpt><trkpt lat="51.7931281775" lon="-2.1513428539"><ele>-47.45</ele><time>2024-01-10T11:27:00Z</time></trkpt><trkpt lat="51.7930966616" lon="-2.1512395050"><ele>-49.91</ele><time>2024-01-10T11:27:25Z</time></trkpt><trkpt lat="51.7930203862" lon="-2.1512246691"><ele>-51.28</ele><time>2024-01-10T11:27:51Z</time></trkpt><trkpt lat="51.7928589508" lon="-2.1511671692"><ele>-52.12</ele><time>2024-01-10T11:28:13Z</time></trkpt><trkpt lat="51.7927599605" lon="-2.1511559375"><ele>-54.59</ele><time>2024-01-10T11:28:35Z</time></trkpt><trkpt lat="51.7927424423" lon="-2.1511348989"><ele>-55.38</ele><time>2024-01-10T11:29:00Z</time></trkpt><trkpt lat="51.7926908098" lon="-2.1511151176"><ele>-56.34</ele><time>2024-01-10T11:29:21Z</time></trkpt><trkpt lat="51.7925556097" lon="-2.1511385031"><ele>-58.27</ele><time>2024-01-10T11:29:46Z</time></trkpt><trkpt lat="51.7925027199" lon="-2.1512535028"><ele>-59.57</ele><time>2024-01-10T11:30:07Z</time></trkpt><trkpt lat="51.7924333178" lon="-2.1512528323"><ele>-60.29</ele><time>2024-01-10T11:30:30Z</time></trkpt><trkpt lat="51.7923512589" lon="-2.1513319574"><ele>-61.21</ele><time>2024-01-10T11:30:50Z</time></trkpt><trkpt lat="51.7922339123" lon="-2.1514297742"><ele>-63.55</ele><time>2024-01-10T11:31:18Z</time></trkpt><trkpt lat="51.7921886500" lon="-2.1514602005"><ele>-65.21</ele><time>2024-01-10T11:31:44Z</time></trkpt><trkpt lat="51.7921244446" lon="-2.1515741944"><ele>-66.70</ele><time>2024-01-10T11:32:06Z</time></trkpt><trkpt lat="51.7920807749" lon="-2.1517606080"><ele>-67.44</ele><time>2024-01-10T11:32:30Z</time></trkpt><trkpt lat="51.7920314055" lon="-2.1518611908"><ele>-68.17</ele><time>2024-01-10T11:32:54Z</time></trkpt><trkpt lat="51.7920428049" lon="-2.1519468538"><ele>-67.98</ele><time>2024-01-10T11:33:24Z</time></trkpt><trkpt lat="51.7920562159" lon="-2.1519560739"><ele>-68.29</ele><time>2024-01-10T11:33:48Z</time></trkpt><trkpt lat="51.7920401227" lon="-2.1519465186"><ele>-68.62</ele><time>2024-01-10T11:34:19Z</time></trkpt><trkpt lat="51.7920311540" lon="-2.1519264020"><ele>-68.33</ele><time>2024-01-10T11:34:50Z</time></trkpt><trkpt lat="51.7920522764" lon="-2.1519316826"><ele>-68.37</ele><time>2024-01-10T11:35:16Z</time></trkpt><trkpt lat="51.7920350097" lon="-2.1519920323"><ele>-68.36</ele><time>2024-01-10T11:35:41Z</time></trkpt><trkpt lat="51.7920193356" lon="-2.1520919446"><ele>-67.29</ele><time>2024-01-10T11:36:03Z</time></trkpt><trkpt lat="51.7919938546" lon="-2.1522779390"><ele>-66.59</ele><time>2024-01-10T11:36:27Z</time></trkpt><trkpt lat="51.7919698823" lon="-2.1525426395"><ele>-66.40</ele><time>2024-01-10T11:36:49Z</time></trkpt><trkpt lat="51.7919754982" lon="-2.1526599023"><ele>-67.02</ele><time>2024-01-10T11:37:13Z</time></trkpt><trkpt lat="51.7919873167" lon="-2.1529517602"><ele>-66.37</ele><time>2024-01-10T11:37:39Z</time></trkpt><trkpt lat="51.7919891607" lon="-2.1531431191"><ele>-64.94</ele><time>2024-01-10T11:38:04Z</time></trkpt><trkpt lat="51.7919884063" lon="-2.1533581987"><ele>-64.64</ele><time>2024-01-10T11:38:29Z</time></trkpt><trkpt lat="51.7919625901" lon="-2.1535574365"><ele>-64.30</ele><time>2024-01-10T11:38:54Z</time></trkpt><trkpt lat="51.7919558845" lon="-2.1537127532"><ele>-64.56</ele><time>2024-01-10T11:39:16Z</time></trkpt><trkpt lat="51.7919591535" lon="-2.1537385695"><ele>-64.24</ele><time>2024-01-10T11:39:41Z</time></trkpt><trkpt lat="51.7919827066" lon="-2.1538000926"><ele>-64.73</ele><time>2024-01-10T11:40:07Z</time></trkpt><trkpt lat="51.7919722293" lon="-2.1538322791"><ele>-64.27</ele><time>2024-01-10T11:40:38Z</time></trkpt><trkpt lat="51.7919195071" lon="-2.1538896114"><ele>-65.05</ele><time>2024-01-10T11:41:02Z</time></trkpt><trkpt lat="51.7918725684" lon="-2.1539377235"><ele>-65.87</ele><time>2024-01-10T11:41:18Z</time></trkpt><trkpt lat="51.7918141466" lon="-2.1542115603"><ele>-66.45</ele><time>2024-01-10T11:41:42Z</time></trkpt><trkpt lat="51.7918289825" lon="-2.1544643585"><ele>-67.18</ele><time>2024-01-10T11:42:09Z</time></trkpt><trkpt lat="51.7918139789" lon="-2.1546350978"><ele>-67.86</ele><time>2024-01-10T11:42:28Z</time></trkpt><trkpt lat="51.7917972151" lon="-2.1547365189"><ele>-68.94</ele><time>2024-01-10T11:42:50Z</time></trkpt><trkpt lat="51.7918031663" lon="-2.1549310628"><ele>-68.94</ele><time>2024-01-10T11:43:10Z</time></trkpt><trkpt lat="51.7918185052" lon="-2.1550209168"><ele>-68.54</ele><time>2024-01-10T11:43:34Z</time></trkpt><trkpt lat="51.7918337602" lon="-2.1550515946"><ele>-68.72</ele><time>2024-01-10T11:44:02Z</time></trkpt><trkpt lat="51.7918257136" lon="-2.1550799254"><ele>-68.72</ele><time>2024-01-10T11:44:31Z</time></trkpt><trkpt lat="51.7918354366" lon="-2.1551052388"><ele>-68.72</ele><time>2024-01-10T11:44:52Z</time></trkpt><trkpt lat="51.7918026634" lon="-2.1551343240"><ele>-68.72</ele><time>2024-01-10T11:45:19Z</time></trkpt><trkpt lat="51.7916331813" lon="-2.1552942507"><ele>-68.72</ele><time>2024-01-10T11:45:43Z</time></trkpt><trkpt lat="51.7914574966" lon="-2.1555212326"><ele>-68.72</ele><time>2024-01-10T11:46:06Z</time></trkpt><trkpt lat="51.7913760245" lon="-2.1556130983"><ele>-68.72</ele><time>2024-01-10T11:46:27Z</time></trkpt><trkpt lat="51.7913254816" lon="-2.1556546725"><ele>-74.49</ele><time>2024-01-10T11:46:44Z</time></trkpt><trkpt lat="51.7913202010" lon="-2.1556560975"><ele>-74.34</ele><time>2024-01-10T11:46:45Z</time></trkpt><trkpt lat="51.7912141699" lon="-2.1556001063"><ele>-73.53</ele><time>2024-01-10T11:47:04Z</time></trkpt><trkpt lat="51.7911180295" lon="-2.1555573586"><ele>-72.68</ele><time>2024-01-10T11:47:23Z</time></trkpt><trkpt lat="51.7910461128" lon="-2.1555391699"><ele>-72.09</ele><time>2024-01-10T11:47:49Z</time></trkpt><trkpt lat="51.7910337914" lon="-2.1555229928"><ele>-70.32</ele><time>2024-01-10T11:48:08Z</time></trkpt><trkpt lat="51.7910156865" lon="-2.1555259265"><ele>-71.26</ele><time>2024-01-10T11:48:29Z</time></trkpt><trkpt lat="51.7910118308" lon="-2.1555255912"><ele>-70.78</ele><time>2024-01-10T11:48:52Z</time></trkpt><trkpt lat="51.7910154350" lon="-2.1555170417"><ele>-70.52</ele><time>2024-01-10T11:49:16Z</time></trkpt><trkpt lat="51.7910132557" lon="-2.1555204783"><ele>-71.32</ele><time>2024-01-10T11:49:44Z</time></trkpt><trkpt lat="51.7910173628" lon="-2.1555255074"><ele>-70.59</ele><time>2024-01-10T11:50:16Z</time></trkpt><trkpt lat="51.7910311092" lon="-2.1555119287"><ele>-70.59</ele><time>2024-01-10T11:50:43Z</time></trkpt><trkpt lat="51.7911275849" lon="-2.1555324644"><ele>-70.59</ele><time>2024-01-10T11:51:05Z</time></trkpt><trkpt lat="51.7911609448" lon="-2.1555639803"><ele>-70.59</ele><time>2024-01-10T11:51:27Z</time></trkpt><trkpt lat="51.7911813967" lon="-2.1555797383"><ele>-70.59</ele><time>2024-01-10T11:51:57Z</time></trkpt><trkpt lat="51.7912642099" lon="-2.1556157805"><ele>-70.59</ele><time>2024-01-10T11:52:12Z</time></trkpt><trkpt lat="51.7912491225" lon="-2.1556297783"><ele>-70.59</ele><time>2024-01-10T11:52:38Z</time></trkpt><trkpt lat="51.7912870087" lon="-2.1557549201"><ele>-70.59</ele><time>2024-01-10T11:52:58Z</time></trkpt><trkpt lat="51.7913749348" lon="-2.1559545770"><ele>-71.56</ele><time>2024-01-10T11:53:12Z</time></trkpt><trkpt lat="51.7913959734" lon="-2.1559857577"><ele>-72.56</ele><time>2024-01-10T11:53:14Z</time></trkpt><trkpt lat="51.7914615199" lon="-2.1561123244"><ele>-72.46</ele><time>2024-01-10T11:53:25Z</time></trkpt><trkpt lat="51.7914875876" lon="-2.1561887674"><ele>-70.83</ele><time>2024-01-10T11:53:41Z</time></trkpt><trkpt lat="51.7915314250" lon="-2.1563113108"><ele>-71.49</ele><time>2024-01-10T11:54:02Z</time></trkpt><trkpt lat="51.7916361988" lon="-2.1564352792"><ele>-68.87</ele><time>2024-01-10T11:54:15Z</time></trkpt><trkpt lat="51.7917263042" lon="-2.1565623488"><ele>-67.69</ele><time>2024-01-10T11:54:29Z</time></trkpt><trkpt lat="51.7917657830" lon="-2.1566175856"><ele>-67.22</ele><time>2024-01-10T11:54:33Z</time></trkpt><trkpt lat="51.7918858118" lon="-2.1567634307"><ele>-66.18</ele><time>2024-01-10T11:54:49Z</time></trkpt><trkpt lat="51.7919041682" lon="-2.1568099502"><ele>-64.14</ele><time>2024-01-10T11:54:59Z</time></trkpt><trkpt lat="51.7918915953" lon="-2.1569189150"><ele>-65.21</ele><time>2024-01-10T11:55:27Z</time></trkpt><trkpt lat="51.7918847222" lon="-2.1569389477"><ele>-65.46</ele><time>2024-01-10T11:55:28Z</time></trkpt><trkpt lat="51.7918428965" lon="-2.1571323182"><ele>-66.73</ele><time>2024-01-10T11:55:47Z</time></trkpt><trkpt lat="51.7917933594" lon="-2.1572515927"><ele>-67.88</ele><time>2024-01-10T11:56:10Z</time></trkpt><trkpt lat="51.7917714827" lon="-2.1573264431"><ele>-66.96</ele><time>2024-01-10T11:56:30Z</time></trkpt><trkpt lat="51.7917039245" lon="-2.1575105935"><ele>-68.08</ele><time>2024-01-10T11:56:50Z</time></trkpt><trkpt lat="51.7916631885" lon="-2.1576592885"><ele>-67.21</ele><time>2024-01-10T11:57:12Z</time></trkpt><trkpt lat="51.7916800361" lon="-2.1578137670"><ele>-67.21</ele><time>2024-01-10T11:57:35Z</time></trkpt><trkpt lat="51.7917707283" lon="-2.1579610370"><ele>-67.21</ele><time>2024-01-10T11:57:52Z</time></trkpt><trkpt lat="51.7918101232" lon="-2.1579425130"><ele>-67.21</ele><time>2024-01-10T11:58:14Z</time></trkpt><trkpt lat="51.7918658629" lon="-2.1581040323"><ele>-67.21</ele><time>2024-01-10T11:58:36Z</time></trkpt><trkpt lat="51.7918874882" lon="-2.1582175232"><ele>-64.37</ele><time>2024-01-10T11:58:43Z</time></trkpt><trkpt lat="51.7919495143" lon="-2.1583404019"><ele>-62.27</ele><time>2024-01-10T11:59:04Z</time></trkpt><trkpt lat="51.7919803597" lon="-2.1584228799"><ele>-62.14</ele><time>2024-01-10T11:59:18Z</time></trkpt><trkpt lat="51.7919918429" lon="-2.1584621072"><ele>-59.36</ele><time>2024-01-10T11:59:34Z</time></trkpt><trkpt lat="51.7920610774" lon="-2.1585842315"><ele>-60.29</ele><time>2024-01-10T11:59:53Z</time></trkpt><trkpt lat="51.7921963613" lon="-2.1587859001"><ele>-58.02</ele><time>2024-01-10T12:00:13Z</time></trkpt><trkpt lat="51.7923642509" lon="-2.1589953639"><ele>-55.06</ele><time>2024-01-10T12:00:39Z</time></trkpt><trkpt lat="51.7924163863" lon="-2.1589780971"><ele>-54.12</ele><time>2024-01-10T12:00:48Z</time></trkpt><trkpt lat="51.7924833577" lon="-2.1590112895"><ele>-52.20</ele><time>2024-01-10T12:01:13Z</time></trkpt><trkpt lat="51.7924779095" lon="-2.1590144746"><ele>-52.69</ele><time>2024-01-10T12:01:22Z</time></trkpt></trkseg></trk></gpx>